sensor_id;sensor_type;location;lat;lon;timestamp;temperature;humidity
30128;DHT22;16942;53.196;6.592;2022-09-09T00:03:54;15.10;99.90
30128;DHT22;16942;53.196;6.592;2022-09-09T00:06:28;15.10;99.90
30128;DHT22;16942;53.196;6.592;2022-09-09T00:09:11;15.10;99.90
30128;DHT22;16942;53.196;6.592;2022-09-09T00:14:34;15.00;99.90
30128;DHT22;16942;53.196;6.592;2022-09-09T00:17:09;15.10;99.90
30128;DHT22;16942;53.196;6.592;2022-09-09T00:19:41;15.10;99.90
30128;DHT22;16942;53.196;6.592;2022-09-09T00:22:15;15.00;99.90
30128;DHT22;16942;53.196;6.592;2022-09-09T00:24:43;15.00;99.90
30128;DHT22;16942;53.196;6.592;2022-09-09T00:29:47;14.90;99.90
30128;DHT22;16942;53.196;6.592;2022-09-09T00:32:19;14.90;99.90
30128;DHT22;16942;53.196;6.592;2022-09-09T00:37:42;14.90;99.90
30128;DHT22;16942;53.196;6.592;2022-09-09T00:40:33;14.90;99.90
30128;DHT22;16942;53.196;6.592;2022-09-09T00:45:52;14.80;99.90
30128;DHT22;16942;53.196;6.592;2022-09-09T00:48:27;14.80;99.90
30128;DHT22;16942;53.196;6.592;2022-09-09T00:51:02;14.70;99.90
30128;DHT22;16942;53.196;6.592;2022-09-09T00:57:13;14.70;99.90
30128;DHT22;16942;53.196;6.592;2022-09-09T00:59:48;14.70;99.90
30128;DHT22;16942;53.196;6.592;2022-09-09T01:02:26;14.60;99.90
30128;DHT22;16942;53.196;6.592;2022-09-09T01:04:53;14.60;99.90
30128;DHT22;16942;53.196;6.592;2022-09-09T01:07:20;14.50;99.90
30128;DHT22;16942;53.196;6.592;2022-09-09T01:09:56;14.50;99.90
30128;DHT22;16942;53.196;6.592;2022-09-09T01:12:47;14.50;99.90
30128;DHT22;16942;53.196;6.592;2022-09-09T01:15:26;14.50;99.90
30128;DHT22;16942;53.196;6.592;2022-09-09T01:17:59;14.60;99.90
30128;DHT22;16942;53.196;6.592;2022-09-09T01:20:48;14.60;99.90
30128;DHT22;16942;53.196;6.592;2022-09-09T01:24:34;14.60;99.90
30128;DHT22;16942;53.196;6.592;2022-09-09T01:26:35;14.60;99.90
30128;DHT22;16942;53.196;6.592;2022-09-09T01:29:02;14.60;99.90
30128;DHT22;16942;53.196;6.592;2022-09-09T01:31:37;14.50;99.90
30128;DHT22;16942;53.196;6.592;2022-09-09T01:34:11;14.50;99.90
30128;DHT22;16942;53.196;6.592;2022-09-09T01:39:26;14.50;99.90
30128;DHT22;16942;53.196;6.592;2022-09-09T01:41:53;14.40;99.90
30128;DHT22;16942;53.196;6.592;2022-09-09T01:44:20;14.40;99.90
30128;DHT22;16942;53.196;6.592;2022-09-09T01:46:46;14.40;99.90
30128;DHT22;16942;53.196;6.592;2022-09-09T01:49:12;14.40;99.90
30128;DHT22;16942;53.196;6.592;2022-09-09T01:51:39;14.40;99.90
30128;DHT22;16942;53.196;6.592;2022-09-09T01:54:06;14.40;99.90
30128;DHT22;16942;53.196;6.592;2022-09-09T02:01:58;14.40;99.90
30128;DHT22;16942;53.196;6.592;2022-09-09T02:07:57;14.40;99.90
30128;DHT22;16942;53.196;6.592;2022-09-09T02:10:24;14.40;99.90
30128;DHT22;16942;53.196;6.592;2022-09-09T02:13:01;14.40;99.90
30128;DHT22;16942;53.196;6.592;2022-09-09T02:18:56;14.50;99.90
30128;DHT22;16942;53.196;6.592;2022-09-09T02:21:23;14.50;99.90
30128;DHT22;16942;53.196;6.592;2022-09-09T02:23:50;14.50;99.90
30128;DHT22;16942;53.196;6.592;2022-09-09T02:26:18;14.50;99.90
30128;DHT22;16942;53.196;6.592;2022-09-09T02:28:49;14.50;99.90
30128;DHT22;16942;53.196;6.592;2022-09-09T02:31:17;14.50;99.90
30128;DHT22;16942;53.196;6.592;2022-09-09T02:33:47;14.50;99.90
30128;DHT22;16942;53.196;6.592;2022-09-09T02:36:17;14.50;99.90
30128;DHT22;16942;53.196;6.592;2022-09-09T02:38:46;14.50;99.90
30128;DHT22;16942;53.196;6.592;2022-09-09T02:41:19;14.50;99.90
30128;DHT22;16942;53.196;6.592;2022-09-09T02:43:47;14.50;99.90
30128;DHT22;16942;53.196;6.592;2022-09-09T02:49:05;14.50;99.90
30128;DHT22;16942;53.196;6.592;2022-09-09T02:51:56;14.50;99.90
30128;DHT22;16942;53.196;6.592;2022-09-09T02:54:31;14.60;99.90
30128;DHT22;16942;53.196;6.592;2022-09-09T02:57:08;14.60;99.90
30128;DHT22;16942;53.196;6.592;2022-09-09T02:59:36;14.60;99.90
30128;DHT22;16942;53.196;6.592;2022-09-09T03:02:02;14.60;99.90
30128;DHT22;16942;53.196;6.592;2022-09-09T03:04:28;14.70;99.90
30128;DHT22;16942;53.196;6.592;2022-09-09T03:06:54;14.70;99.90
30128;DHT22;16942;53.196;6.592;2022-09-09T03:09:20;14.70;99.90
30128;DHT22;16942;53.196;6.592;2022-09-09T03:11:45;14.70;99.90
30128;DHT22;16942;53.196;6.592;2022-09-09T03:14:11;14.70;99.90
30128;DHT22;16942;53.196;6.592;2022-09-09T03:16:37;14.70;99.90
30128;DHT22;16942;53.196;6.592;2022-09-09T03:19:02;14.70;99.90
30128;DHT22;16942;53.196;6.592;2022-09-09T03:21:28;14.70;99.90
30128;DHT22;16942;53.196;6.592;2022-09-09T03:23:54;14.80;99.90
30128;DHT22;16942;53.196;6.592;2022-09-09T03:26:20;14.80;99.90
30128;DHT22;16942;53.196;6.592;2022-09-09T03:28:46;14.90;99.90
30128;DHT22;16942;53.196;6.592;2022-09-09T03:31:12;14.90;99.90
30128;DHT22;16942;53.196;6.592;2022-09-09T03:33:38;14.90;99.90
30128;DHT22;16942;53.196;6.592;2022-09-09T03:36:04;14.90;99.90
30128;DHT22;16942;53.196;6.592;2022-09-09T03:38:30;14.90;99.90
30128;DHT22;16942;53.196;6.592;2022-09-09T03:40:57;14.90;99.90
30128;DHT22;16942;53.196;6.592;2022-09-09T03:43:24;14.90;99.90
30128;DHT22;16942;53.196;6.592;2022-09-09T03:45:50;15.00;99.90
30128;DHT22;16942;53.196;6.592;2022-09-09T03:48:17;15.00;99.90
30128;DHT22;16942;53.196;6.592;2022-09-09T03:50:50;14.90;99.90
30128;DHT22;16942;53.196;6.592;2022-09-09T03:53:17;14.90;99.90
30128;DHT22;16942;53.196;6.592;2022-09-09T03:55:49;15.00;99.90
30128;DHT22;16942;53.196;6.592;2022-09-09T03:58:16;14.90;99.90
30128;DHT22;16942;53.196;6.592;2022-09-09T04:00:52;14.90;99.90
30128;DHT22;16942;53.196;6.592;2022-09-09T04:03:18;15.00;99.90
30128;DHT22;16942;53.196;6.592;2022-09-09T04:05:44;15.00;99.90
30128;DHT22;16942;53.196;6.592;2022-09-09T04:08:10;15.00;99.90
30128;DHT22;16942;53.196;6.592;2022-09-09T04:10:36;15.00;99.90
30128;DHT22;16942;53.196;6.592;2022-09-09T04:13:06;15.00;99.90
30128;DHT22;16942;53.196;6.592;2022-09-09T04:15:32;15.00;99.90
30128;DHT22;16942;53.196;6.592;2022-09-09T04:17:58;15.10;99.90
30128;DHT22;16942;53.196;6.592;2022-09-09T04:20:24;15.10;99.90
30128;DHT22;16942;53.196;6.592;2022-09-09T04:22:49;15.10;99.90
30128;DHT22;16942;53.196;6.592;2022-09-09T04:25:15;15.20;99.90
30128;DHT22;16942;53.196;6.592;2022-09-09T04:27:41;15.20;99.90
30128;DHT22;16942;53.196;6.592;2022-09-09T04:30:08;15.20;99.90
30128;DHT22;16942;53.196;6.592;2022-09-09T04:32:34;15.20;99.90
30128;DHT22;16942;53.196;6.592;2022-09-09T04:35:01;15.20;99.90
30128;DHT22;16942;53.196;6.592;2022-09-09T04:37:26;15.10;99.90
30128;DHT22;16942;53.196;6.592;2022-09-09T04:39:52;15.20;99.90
30128;DHT22;16942;53.196;6.592;2022-09-09T04:42:18;15.20;99.90
30128;DHT22;16942;53.196;6.592;2022-09-09T04:44:44;15.10;99.90
30128;DHT22;16942;53.196;6.592;2022-09-09T04:47:10;15.10;99.90
30128;DHT22;16942;53.196;6.592;2022-09-09T04:49:36;15.10;99.90
30128;DHT22;16942;53.196;6.592;2022-09-09T04:52:03;15.10;99.90
30128;DHT22;16942;53.196;6.592;2022-09-09T04:54:29;15.10;99.90
30128;DHT22;16942;53.196;6.592;2022-09-09T04:56:55;15.10;99.90
30128;DHT22;16942;53.196;6.592;2022-09-09T04:59:21;15.10;99.90
30128;DHT22;16942;53.196;6.592;2022-09-09T05:01:47;15.10;99.90
30128;DHT22;16942;53.196;6.592;2022-09-09T05:04:13;15.10;99.90
30128;DHT22;16942;53.196;6.592;2022-09-09T05:06:40;15.10;99.90
30128;DHT22;16942;53.196;6.592;2022-09-09T05:09:08;15.10;99.90
30128;DHT22;16942;53.196;6.592;2022-09-09T05:11:34;15.10;99.90
30128;DHT22;16942;53.196;6.592;2022-09-09T05:14:02;15.10;99.90
30128;DHT22;16942;53.196;6.592;2022-09-09T05:16:28;15.10;99.90
30128;DHT22;16942;53.196;6.592;2022-09-09T05:18:53;15.10;99.90
30128;DHT22;16942;53.196;6.592;2022-09-09T05:21:21;15.10;99.90
30128;DHT22;16942;53.196;6.592;2022-09-09T05:23:47;15.10;99.90
30128;DHT22;16942;53.196;6.592;2022-09-09T05:26:18;15.10;99.90
30128;DHT22;16942;53.196;6.592;2022-09-09T05:28:44;15.10;99.90
30128;DHT22;16942;53.196;6.592;2022-09-09T05:31:11;15.10;99.90
30128;DHT22;16942;53.196;6.592;2022-09-09T05:33:38;15.10;99.90
30128;DHT22;16942;53.196;6.592;2022-09-09T05:36:10;15.10;99.90
30128;DHT22;16942;53.196;6.592;2022-09-09T05:38:39;15.10;99.90
30128;DHT22;16942;53.196;6.592;2022-09-09T05:41:05;15.00;99.90
30128;DHT22;16942;53.196;6.592;2022-09-09T05:43:32;15.00;99.90
30128;DHT22;16942;53.196;6.592;2022-09-09T05:46:12;15.10;99.90
30128;DHT22;16942;53.196;6.592;2022-09-09T05:48:39;15.10;99.90
30128;DHT22;16942;53.196;6.592;2022-09-09T05:51:08;15.10;99.90
30128;DHT22;16942;53.196;6.592;2022-09-09T05:53:34;15.10;99.90
30128;DHT22;16942;53.196;6.592;2022-09-09T05:56:08;15.10;99.90
30128;DHT22;16942;53.196;6.592;2022-09-09T05:58:38;15.20;99.90
30128;DHT22;16942;53.196;6.592;2022-09-09T06:01:17;15.20;99.90
30128;DHT22;16942;53.196;6.592;2022-09-09T06:03:44;15.20;99.90
30128;DHT22;16942;53.196;6.592;2022-09-09T06:06:13;15.20;99.90
30128;DHT22;16942;53.196;6.592;2022-09-09T06:08:41;15.20;99.90
30128;DHT22;16942;53.196;6.592;2022-09-09T06:11:15;15.30;99.90
30128;DHT22;16942;53.196;6.592;2022-09-09T06:13:41;15.30;99.90
30128;DHT22;16942;53.196;6.592;2022-09-09T06:16:15;15.40;99.90
30128;DHT22;16942;53.196;6.592;2022-09-09T06:18:42;15.30;99.90
30128;DHT22;16942;53.196;6.592;2022-09-09T06:21:22;15.40;99.90
30128;DHT22;16942;53.196;6.592;2022-09-09T06:23:49;15.40;99.90
30128;DHT22;16942;53.196;6.592;2022-09-09T06:26:42;15.40;99.90
30128;DHT22;16942;53.196;6.592;2022-09-09T06:29:08;15.40;99.90
30128;DHT22;16942;53.196;6.592;2022-09-09T06:31:35;15.40;99.90
30128;DHT22;16942;53.196;6.592;2022-09-09T06:34:04;15.30;99.90
30128;DHT22;16942;53.196;6.592;2022-09-09T06:36:32;15.40;99.90
30128;DHT22;16942;53.196;6.592;2022-09-09T06:38:58;15.40;99.90
30128;DHT22;16942;53.196;6.592;2022-09-09T06:41:29;15.50;99.90
30128;DHT22;16942;53.196;6.592;2022-09-09T06:43:56;15.50;99.90
30128;DHT22;16942;53.196;6.592;2022-09-09T06:46:23;15.60;99.90
30128;DHT22;16942;53.196;6.592;2022-09-09T06:48:53;15.60;99.90
30128;DHT22;16942;53.196;6.592;2022-09-09T06:51:25;15.70;99.90
30128;DHT22;16942;53.196;6.592;2022-09-09T06:53:53;15.70;99.90
30128;DHT22;16942;53.196;6.592;2022-09-09T06:58:49;15.80;99.90
30128;DHT22;16942;53.196;6.592;2022-09-09T07:01:23;15.80;99.90
30128;DHT22;16942;53.196;6.592;2022-09-09T07:03:52;15.90;99.90
30128;DHT22;16942;53.196;6.592;2022-09-09T07:06:23;15.90;99.90
30128;DHT22;16942;53.196;6.592;2022-09-09T07:08:53;15.90;99.90
30128;DHT22;16942;53.196;6.592;2022-09-09T07:11:21;15.90;99.90
30128;DHT22;16942;53.196;6.592;2022-09-09T07:13:47;16.00;99.90
30128;DHT22;16942;53.196;6.592;2022-09-09T07:16:16;16.00;99.90
30128;DHT22;16942;53.196;6.592;2022-09-09T07:18:42;16.00;99.90
30128;DHT22;16942;53.196;6.592;2022-09-09T07:21:10;16.10;99.90
30128;DHT22;16942;53.196;6.592;2022-09-09T07:23:37;16.20;99.90
30128;DHT22;16942;53.196;6.592;2022-09-09T07:26:08;16.20;99.90
30128;DHT22;16942;53.196;6.592;2022-09-09T07:28:34;16.20;99.90
30128;DHT22;16942;53.196;6.592;2022-09-09T07:31:01;16.20;99.90
30128;DHT22;16942;53.196;6.592;2022-09-09T07:33:28;16.30;99.90
30128;DHT22;16942;53.196;6.592;2022-09-09T07:36:06;16.30;99.90
30128;DHT22;16942;53.196;6.592;2022-09-09T07:38:39;16.40;99.90
30128;DHT22;16942;53.196;6.592;2022-09-09T07:41:16;16.50;99.90
30128;DHT22;16942;53.196;6.592;2022-09-09T07:43:43;16.50;99.90
30128;DHT22;16942;53.196;6.592;2022-09-09T07:46:11;16.60;99.90
30128;DHT22;16942;53.196;6.592;2022-09-09T07:48:37;16.60;99.90
30128;DHT22;16942;53.196;6.592;2022-09-09T07:51:15;16.60;99.90
30128;DHT22;16942;53.196;6.592;2022-09-09T07:53:45;16.70;99.90
30128;DHT22;16942;53.196;6.592;2022-09-09T07:56:14;16.70;99.90
30128;DHT22;16942;53.196;6.592;2022-09-09T07:58:41;16.90;99.90
30128;DHT22;16942;53.196;6.592;2022-09-09T08:01:19;16.90;99.90
30128;DHT22;16942;53.196;6.592;2022-09-09T08:03:46;16.90;99.90
30128;DHT22;16942;53.196;6.592;2022-09-09T08:06:13;17.00;99.90
30128;DHT22;16942;53.196;6.592;2022-09-09T08:08:39;17.00;99.90
30128;DHT22;16942;53.196;6.592;2022-09-09T08:11:14;17.10;99.90
30128;DHT22;16942;53.196;6.592;2022-09-09T08:13:42;17.30;99.90
30128;DHT22;16942;53.196;6.592;2022-09-09T08:16:11;17.40;99.90
30128;DHT22;16942;53.196;6.592;2022-09-09T08:18:38;17.50;99.90
30128;DHT22;16942;53.196;6.592;2022-09-09T08:21:15;17.50;99.90
30128;DHT22;16942;53.196;6.592;2022-09-09T08:23:44;17.60;99.90
30128;DHT22;16942;53.196;6.592;2022-09-09T08:26:22;17.70;99.90
30128;DHT22;16942;53.196;6.592;2022-09-09T08:28:52;17.80;99.90
30128;DHT22;16942;53.196;6.592;2022-09-09T08:31:22;17.90;99.90
30128;DHT22;16942;53.196;6.592;2022-09-09T08:33:48;18.00;99.90
30128;DHT22;16942;53.196;6.592;2022-09-09T08:36:20;18.10;99.90
30128;DHT22;16942;53.196;6.592;2022-09-09T08:38:52;18.30;99.90
30128;DHT22;16942;53.196;6.592;2022-09-09T08:46:58;18.60;99.90
30128;DHT22;16942;53.196;6.592;2022-09-09T08:57:40;18.60;99.90
30128;DHT22;16942;53.196;6.592;2022-09-09T09:00:09;18.60;99.90
30128;DHT22;16942;53.196;6.592;2022-09-09T09:02:58;18.70;99.90
30128;DHT22;16942;53.196;6.592;2022-09-09T09:05:49;18.80;99.90
30128;DHT22;16942;53.196;6.592;2022-09-09T09:08:25;18.90;99.90
30128;DHT22;16942;53.196;6.592;2022-09-09T09:10:54;18.90;99.90
30128;DHT22;16942;53.196;6.592;2022-09-09T09:16:29;18.80;99.90
30128;DHT22;16942;53.196;6.592;2022-09-09T09:18:57;18.90;99.90
30128;DHT22;16942;53.196;6.592;2022-09-09T09:21:45;18.90;99.90
30128;DHT22;16942;53.196;6.592;2022-09-09T09:26:43;19.30;99.90
30128;DHT22;16942;53.196;6.592;2022-09-09T09:29:19;19.50;99.90
30128;DHT22;16942;53.196;6.592;2022-09-09T09:31:56;19.80;99.90
30128;DHT22;16942;53.196;6.592;2022-09-09T09:34:22;19.80;99.90
30128;DHT22;16942;53.196;6.592;2022-09-09T09:36:57;19.90;99.90
30128;DHT22;16942;53.196;6.592;2022-09-09T09:39:29;19.90;99.90
30128;DHT22;16942;53.196;6.592;2022-09-09T09:41:55;20.00;99.90
30128;DHT22;16942;53.196;6.592;2022-09-09T09:44:31;20.30;99.90
30128;DHT22;16942;53.196;6.592;2022-09-09T09:47:11;20.40;99.90
30128;DHT22;16942;53.196;6.592;2022-09-09T09:49:38;20.40;99.90
30128;DHT22;16942;53.196;6.592;2022-09-09T09:52:06;20.30;99.90
30128;DHT22;16942;53.196;6.592;2022-09-09T09:54:39;20.30;99.90
30128;DHT22;16942;53.196;6.592;2022-09-09T09:57:15;20.20;99.90
30128;DHT22;16942;53.196;6.592;2022-09-09T09:59:42;20.10;99.90
30128;DHT22;16942;53.196;6.592;2022-09-09T10:02:20;20.20;99.90
30128;DHT22;16942;53.196;6.592;2022-09-09T10:04:46;20.30;99.90
30128;DHT22;16942;53.196;6.592;2022-09-09T10:07:22;20.30;99.90
30128;DHT22;16942;53.196;6.592;2022-09-09T10:09:55;20.30;99.90
30128;DHT22;16942;53.196;6.592;2022-09-09T10:20:37;20.10;99.90
30128;DHT22;16942;53.196;6.592;2022-09-09T10:28:36;19.60;99.90
30128;DHT22;16942;53.196;6.592;2022-09-09T10:31:21;19.70;99.90
30128;DHT22;16942;53.196;6.592;2022-09-09T10:51:18;19.60;99.90
30128;DHT22;16942;53.196;6.592;2022-09-09T10:53:56;19.60;99.90
30128;DHT22;16942;53.196;6.592;2022-09-09T10:56:26;19.70;99.90
30128;DHT22;16942;53.196;6.592;2022-09-09T10:59:04;20.10;99.90
30128;DHT22;16942;53.196;6.592;2022-09-09T11:01:41;20.50;99.90
30128;DHT22;16942;53.196;6.592;2022-09-09T11:04:24;20.70;99.90
30128;DHT22;16942;53.196;6.592;2022-09-09T11:06:54;20.70;99.90
30128;DHT22;16942;53.196;6.592;2022-09-09T11:09:24;20.80;99.90
30128;DHT22;16942;53.196;6.592;2022-09-09T11:11:54;21.00;99.90
30128;DHT22;16942;53.196;6.592;2022-09-09T11:14:45;21.10;99.90
30128;DHT22;16942;53.196;6.592;2022-09-09T11:17:24;21.20;99.90
30128;DHT22;16942;53.196;6.592;2022-09-09T11:19:52;21.20;99.90
30128;DHT22;16942;53.196;6.592;2022-09-09T11:22:47;21.40;99.90
30128;DHT22;16942;53.196;6.592;2022-09-09T11:25:26;21.60;99.90
30128;DHT22;16942;53.196;6.592;2022-09-09T11:28:07;21.70;99.90
30128;DHT22;16942;53.196;6.592;2022-09-09T11:30:45;21.80;99.90
30128;DHT22;16942;53.196;6.592;2022-09-09T11:36:32;22.00;99.90
30128;DHT22;16942;53.196;6.592;2022-09-09T11:41:47;22.20;99.90
30128;DHT22;16942;53.196;6.592;2022-09-09T11:44:24;22.30;99.90
30128;DHT22;16942;53.196;6.592;2022-09-09T11:46:52;22.40;99.90
30128;DHT22;16942;53.196;6.592;2022-09-09T11:49:29;22.20;99.90
30128;DHT22;16942;53.196;6.592;2022-09-09T11:51:57;21.90;99.90
30128;DHT22;16942;53.196;6.592;2022-09-09T11:54:34;21.60;99.90
30128;DHT22;16942;53.196;6.592;2022-09-09T11:57:25;21.50;99.90
30128;DHT22;16942;53.196;6.592;2022-09-09T11:59:52;21.90;99.90
30128;DHT22;16942;53.196;6.592;2022-09-09T12:02:25;22.40;99.90
30128;DHT22;16942;53.196;6.592;2022-09-09T12:07:39;22.90;99.90
30128;DHT22;16942;53.196;6.592;2022-09-09T12:13:27;22.40;99.90
30128;DHT22;16942;53.196;6.592;2022-09-09T12:15:58;22.70;99.90
30128;DHT22;16942;53.196;6.592;2022-09-09T12:18:31;23.00;99.90
30128;DHT22;16942;53.196;6.592;2022-09-09T12:29:23;23.00;99.90
30128;DHT22;16942;53.196;6.592;2022-09-09T12:32:02;23.00;99.90
30128;DHT22;16942;53.196;6.592;2022-09-09T12:34:37;23.10;99.90
30128;DHT22;16942;53.196;6.592;2022-09-09T12:39:45;22.60;99.90
30128;DHT22;16942;53.196;6.592;2022-09-09T12:42:20;22.50;99.90
30128;DHT22;16942;53.196;6.592;2022-09-09T12:44:59;22.30;99.90
30128;DHT22;16942;53.196;6.592;2022-09-09T12:47:45;22.30;99.90
30128;DHT22;16942;53.196;6.592;2022-09-09T12:50:23;22.90;99.90
30128;DHT22;16942;53.196;6.592;2022-09-09T12:52:55;23.00;99.90
30128;DHT22;16942;53.196;6.592;2022-09-09T12:55:25;23.10;99.90
30128;DHT22;16942;53.196;6.592;2022-09-09T12:57:53;23.60;99.90
30128;DHT22;16942;53.196;6.592;2022-09-09T13:00:21;23.70;99.90
30128;DHT22;16942;53.196;6.592;2022-09-09T13:02:56;23.80;99.90
30128;DHT22;16942;53.196;6.592;2022-09-09T13:07:49;25.30;99.90
30128;DHT22;16942;53.196;6.592;2022-09-09T13:10:24;26.20;99.90
30128;DHT22;16942;53.196;6.592;2022-09-09T13:12:52;26.70;99.90
30128;DHT22;16942;53.196;6.592;2022-09-09T13:15:24;26.90;99.90
30128;DHT22;16942;53.196;6.592;2022-09-09T13:18:01;28.10;99.90
30128;DHT22;16942;53.196;6.592;2022-09-09T13:20:28;28.90;99.90
30128;DHT22;16942;53.196;6.592;2022-09-09T13:22:55;28.80;99.90
30128;DHT22;16942;53.196;6.592;2022-09-09T13:25:26;29.20;99.90
30128;DHT22;16942;53.196;6.592;2022-09-09T13:28:00;29.40;99.90
30128;DHT22;16942;53.196;6.592;2022-09-09T13:30:30;28.40;99.90
30128;DHT22;16942;53.196;6.592;2022-09-09T13:35:35;28.00;99.90
30128;DHT22;16942;53.196;6.592;2022-09-09T13:38:13;29.70;99.90
30128;DHT22;16942;53.196;6.592;2022-09-09T13:40:39;31.60;99.90
30128;DHT22;16942;53.196;6.592;2022-09-09T13:43:04;30.80;99.90
30128;DHT22;16942;53.196;6.592;2022-09-09T13:45:30;29.30;99.90
30128;DHT22;16942;53.196;6.592;2022-09-09T13:47:56;28.10;99.90
30128;DHT22;16942;53.196;6.592;2022-09-09T13:50:29;26.90;99.90
30128;DHT22;16942;53.196;6.592;2022-09-09T13:52:56;25.70;99.90
30128;DHT22;16942;53.196;6.592;2022-09-09T13:55:25;24.80;99.90
30128;DHT22;16942;53.196;6.592;2022-09-09T13:57:59;24.30;99.90
30128;DHT22;16942;53.196;6.592;2022-09-09T14:00:33;24.80;99.90
30128;DHT22;16942;53.196;6.592;2022-09-09T14:02:59;26.20;99.90
30128;DHT22;16942;53.196;6.592;2022-09-09T14:05:30;27.40;99.90
30128;DHT22;16942;53.196;6.592;2022-09-09T14:07:57;29.10;99.90
30128;DHT22;16942;53.196;6.592;2022-09-09T14:10:23;31.10;99.90
30128;DHT22;16942;53.196;6.592;2022-09-09T14:12:49;32.50;99.90
30128;DHT22;16942;53.196;6.592;2022-09-09T14:15:14;32.40;99.90
30128;DHT22;16942;53.196;6.592;2022-09-09T14:17:40;30.90;99.90
30128;DHT22;16942;53.196;6.592;2022-09-09T14:20:07;29.50;99.90
30128;DHT22;16942;53.196;6.592;2022-09-09T14:22:33;28.20;99.90
30128;DHT22;16942;53.196;6.592;2022-09-09T14:24:59;27.40;99.90
30128;DHT22;16942;53.196;6.592;2022-09-09T14:27:25;27.50;99.90
30128;DHT22;16942;53.196;6.592;2022-09-09T14:29:52;27.90;99.90
30128;DHT22;16942;53.196;6.592;2022-09-09T14:32:18;28.00;99.90
30128;DHT22;16942;53.196;6.592;2022-09-09T14:34:44;27.70;99.90
30128;DHT22;16942;53.196;6.592;2022-09-09T14:37:09;27.10;99.90
30128;DHT22;16942;53.196;6.592;2022-09-09T14:39:35;26.40;99.90
30128;DHT22;16942;53.196;6.592;2022-09-09T14:42:00;25.90;99.90
30128;DHT22;16942;53.196;6.592;2022-09-09T14:44:28;25.70;99.90
30128;DHT22;16942;53.196;6.592;2022-09-09T14:46:53;25.20;99.90
30128;DHT22;16942;53.196;6.592;2022-09-09T14:49:19;24.50;99.90
30128;DHT22;16942;53.196;6.592;2022-09-09T14:51:45;23.60;99.90
30128;DHT22;16942;53.196;6.592;2022-09-09T14:54:11;23.00;99.90
30128;DHT22;16942;53.196;6.592;2022-09-09T14:56:37;22.60;99.90
30128;DHT22;16942;53.196;6.592;2022-09-09T14:59:03;22.50;99.90
30128;DHT22;16942;53.196;6.592;2022-09-09T15:01:30;22.50;99.90
30128;DHT22;16942;53.196;6.592;2022-09-09T15:04:02;22.70;99.90
30128;DHT22;16942;53.196;6.592;2022-09-09T15:06:30;23.10;99.90
30128;DHT22;16942;53.196;6.592;2022-09-09T15:08:58;23.60;99.90
30128;DHT22;16942;53.196;6.592;2022-09-09T15:11:27;24.50;99.90
30128;DHT22;16942;53.196;6.592;2022-09-09T15:13:53;26.30;99.90
30128;DHT22;16942;53.196;6.592;2022-09-09T15:16:20;28.10;99.90
30128;DHT22;16942;53.196;6.592;2022-09-09T15:18:52;28.60;99.90
30128;DHT22;16942;53.196;6.592;2022-09-09T15:21:21;29.10;99.90
30128;DHT22;16942;53.196;6.592;2022-09-09T15:23:48;28.40;99.90
30128;DHT22;16942;53.196;6.592;2022-09-09T15:26:14;27.40;99.90
30128;DHT22;16942;53.196;6.592;2022-09-09T15:28:41;26.40;99.90
30128;DHT22;16942;53.196;6.592;2022-09-09T15:31:12;25.50;99.90
30128;DHT22;16942;53.196;6.592;2022-09-09T15:33:40;24.70;99.90
30128;DHT22;16942;53.196;6.592;2022-09-09T15:36:25;24.10;99.90
30128;DHT22;16942;53.196;6.592;2022-09-09T15:38:51;24.60;99.90
30128;DHT22;16942;53.196;6.592;2022-09-09T15:41:19;25.90;99.90
30128;DHT22;16942;53.196;6.592;2022-09-09T15:43:50;26.50;99.90
30128;DHT22;16942;53.196;6.592;2022-09-09T15:46:23;26.30;99.90
30128;DHT22;16942;53.196;6.592;2022-09-09T15:48:53;25.80;99.90
30128;DHT22;16942;53.196;6.592;2022-09-09T15:51:20;25.30;99.90
30128;DHT22;16942;53.196;6.592;2022-09-09T15:53:46;24.80;99.90
30128;DHT22;16942;53.196;6.592;2022-09-09T15:56:12;24.40;99.90
30128;DHT22;16942;53.196;6.592;2022-09-09T15:58:37;24.10;99.90
30128;DHT22;16942;53.196;6.592;2022-09-09T16:01:04;23.90;99.90
30128;DHT22;16942;53.196;6.592;2022-09-09T16:03:34;23.70;99.90
30128;DHT22;16942;53.196;6.592;2022-09-09T16:06:00;23.50;99.90
30128;DHT22;16942;53.196;6.592;2022-09-09T16:08:32;23.20;99.90
30128;DHT22;16942;53.196;6.592;2022-09-09T16:11:07;22.90;99.90
30128;DHT22;16942;53.196;6.592;2022-09-09T16:13:39;22.80;99.90
30128;DHT22;16942;53.196;6.592;2022-09-09T16:16:05;23.00;99.90
30128;DHT22;16942;53.196;6.592;2022-09-09T16:18:40;23.20;99.90
30128;DHT22;16942;53.196;6.592;2022-09-09T16:21:07;23.20;99.90
30128;DHT22;16942;53.196;6.592;2022-09-09T16:23:36;23.10;99.90
30128;DHT22;16942;53.196;6.592;2022-09-09T16:26:02;23.10;99.90
30128;DHT22;16942;53.196;6.592;2022-09-09T16:28:28;23.10;99.90
30128;DHT22;16942;53.196;6.592;2022-09-09T16:30:54;22.90;99.90
30128;DHT22;16942;53.196;6.592;2022-09-09T16:33:20;22.80;99.90
30128;DHT22;16942;53.196;6.592;2022-09-09T16:35:46;22.60;99.90
30128;DHT22;16942;53.196;6.592;2022-09-09T16:38:12;22.30;99.90
30128;DHT22;16942;53.196;6.592;2022-09-09T16:40:38;22.10;99.90
30128;DHT22;16942;53.196;6.592;2022-09-09T16:43:07;21.80;99.90
30128;DHT22;16942;53.196;6.592;2022-09-09T16:45:33;21.70;99.90
30128;DHT22;16942;53.196;6.592;2022-09-09T16:47:59;21.50;99.90
30128;DHT22;16942;53.196;6.592;2022-09-09T16:50:26;21.20;99.90
30128;DHT22;16942;53.196;6.592;2022-09-09T16:52:52;21.00;99.90
30128;DHT22;16942;53.196;6.592;2022-09-09T16:55:18;20.90;99.90
30128;DHT22;16942;53.196;6.592;2022-09-09T16:57:46;20.70;99.90
30128;DHT22;16942;53.196;6.592;2022-09-09T17:00:14;20.60;99.90
30128;DHT22;16942;53.196;6.592;2022-09-09T17:02:42;20.50;99.90
30128;DHT22;16942;53.196;6.592;2022-09-09T17:05:08;20.30;99.90
30128;DHT22;16942;53.196;6.592;2022-09-09T17:07:34;20.20;99.90
30128;DHT22;16942;53.196;6.592;2022-09-09T17:10:01;20.20;99.90
30128;DHT22;16942;53.196;6.592;2022-09-09T17:12:27;20.10;99.90
30128;DHT22;16942;53.196;6.592;2022-09-09T17:14:53;20.10;99.90
30128;DHT22;16942;53.196;6.592;2022-09-09T17:17:20;20.00;99.90
30128;DHT22;16942;53.196;6.592;2022-09-09T17:19:46;20.00;99.90
30128;DHT22;16942;53.196;6.592;2022-09-09T17:22:12;19.90;99.90
30128;DHT22;16942;53.196;6.592;2022-09-09T17:24:38;19.80;99.90
30128;DHT22;16942;53.196;6.592;2022-09-09T17:27:04;19.70;99.90
30128;DHT22;16942;53.196;6.592;2022-09-09T17:29:29;19.60;99.90
30128;DHT22;16942;53.196;6.592;2022-09-09T17:31:55;19.50;99.90
30128;DHT22;16942;53.196;6.592;2022-09-09T17:34:21;19.40;99.90
30128;DHT22;16942;53.196;6.592;2022-09-09T17:36:48;19.40;99.90
30128;DHT22;16942;53.196;6.592;2022-09-09T17:39:13;19.40;99.90
30128;DHT22;16942;53.196;6.592;2022-09-09T17:41:40;19.30;99.90
30128;DHT22;16942;53.196;6.592;2022-09-09T17:44:07;19.30;99.90